Time;durP1;ratioP1;P1;durP2;ratioP2;P2;SDS_P1;SDS_P2;PMS_P1;PMS_P2;Temp;Humidity;BMP_temperature;BMP_pressure;BME280_temperature;BME280_humidity;BME280_pressure;Samples;Min_cycle;Max_cycle;Signal;HPM_P1;HPM_P2
2023/11/28 00:01:02;;;;;;;0.50;0.50;;;5.70;92.00;;;;;;5114004;28;20479;-76
2023/11/28 00:03:28;;;;;;;0.60;0.60;;;5.50;91.90;;;;;;5078772;28;20031;-76
2023/11/28 00:05:55;;;;;;;0.50;0.50;;;5.40;92.10;;;;;;5095572;28;20031;-76
2023/11/28 00:08:20;;;;;;;0.60;0.60;;;5.30;91.90;;;;;;5095498;28;20483;-76
2023/11/28 00:10:47;;;;;;;0.60;0.60;;;5.20;92.00;;;;;;5095808;28;20148;-76
2023/11/28 00:13:13;;;;;;;;;;;5.10;92.00;;;;;;5114357;28;20055;-76
2023/11/28 00:15:39;;;;;;;0.60;0.60;;;4.90;92.00;;;;;;5078518;28;19946;-76
2023/11/28 00:18:05;;;;;;;0.60;0.60;;;4.80;92.10;;;;;;5113550;28;20122;-76
2023/11/28 00:20:31;;;;;;;0.70;0.70;;;4.80;92.10;;;;;;5095468;28;20474;-76
2023/11/28 00:22:57;;;;;;;0.60;0.60;;;4.70;92.20;;;;;;5078251;28;20032;-76
2023/11/28 00:25:22;;;;;;;0.70;0.70;;;4.70;92.20;;;;;;5078343;28;20048;-76
2023/11/28 00:27:48;;;;;;;0.70;0.70;;;4.70;92.20;;;;;;5095204;28;20031;-76
2023/11/28 00:30:15;;;;;;;0.90;0.90;;;4.70;92.20;;;;;;5078421;28;20023;-76
2023/11/28 00:32:42;;;;;;;0.80;0.80;;;4.70;92.10;;;;;;5113454;28;20024;-76
2023/11/28 00:35:08;;;;;;;0.80;0.80;;;4.60;92.00;;;;;;5078580;28;20501;-75
2023/11/28 00:37:34;;;;;;;1.00;1.00;;;4.60;92.00;;;;;;5113444;28;20032;-76
2023/11/28 00:40:00;;;;;;;1.00;1.00;;;4.60;92.00;;;;;;5095090;28;20032;-76
2023/11/28 00:42:26;;;;;;;0.80;0.80;;;4.60;92.00;;;;;;5094957;28;20425;-75
2023/11/28 00:44:52;;;;;;;0.93;0.93;;;4.60;92.00;;;;;;5094766;28;20310;-76
2023/11/28 00:47:18;;;;;;;0.90;0.90;;;4.60;92.00;;;;;;5112415;28;20531;-76
2023/11/28 00:49:44;;;;;;;0.90;0.90;;;4.60;92.00;;;;;;5094642;28;20107;-76
2023/11/28 00:52:10;;;;;;;0.73;0.73;;;4.60;92.20;;;;;;5077919;28;20019;-75
2023/11/28 00:54:38;;;;;;;0.93;0.93;;;4.70;92.00;;;;;;5112828;28;20050;-76
2023/11/28 00:57:05;;;;;;;0.80;0.80;;;4.70;92.00;;;;;;5113058;28;20096;-75
2023/11/28 00:59:31;;;;;;;0.70;0.70;;;4.70;92.10;;;;;;5094497;28;20030;-74
2023/11/28 01:01:57;;;;;;;0.70;0.70;;;4.70;92.10;;;;;;5112964;28;20497;-76
2023/11/28 01:04:22;;;;;;;0.80;0.80;;;4.80;92.10;;;;;;5094319;28;20040;-76
2023/11/28 01:06:48;;;;;;;0.88;0.88;;;4.90;92.10;;;;;;5094719;28;20023;-76
2023/11/28 01:09:14;;;;;;;0.80;0.80;;;4.90;92.00;;;;;;5112816;28;20024;-76
2023/11/28 01:11:41;;;;;;;0.85;0.85;;;4.90;92.00;;;;;;5112803;28;20023;-75
2023/11/28 01:14:07;;;;;;;0.90;0.90;;;4.90;92.00;;;;;;5094582;28;20080;-76
2023/11/28 01:16:34;;;;;;;0.95;0.95;;;4.90;92.00;;;;;;5094260;28;20103;-76
2023/11/28 01:19:00;;;;;;;0.85;0.85;;;4.80;92.00;;;;;;5094177;28;20027;-76
2023/11/28 01:21:26;;;;;;;0.80;0.80;;;4.80;92.00;;;;;;5112635;28;20027;-76
2023/11/28 01:23:51;;;;;;;0.80;0.80;;;4.80;92.00;;;;;;5076954;28;20046;-76
2023/11/28 01:26:17;;;;;;;0.70;0.70;;;4.80;92.00;;;;;;5077329;28;20020;-76
2023/11/28 01:28:43;;;;;;;0.90;0.90;;;4.80;92.10;;;;;;5094016;28;20031;-76
2023/11/28 01:31:12;;;;;;;0.80;0.80;;;4.80;92.10;;;;;;5094313;28;20055;-76
2023/11/28 01:33:38;;;;;;;0.70;0.70;;;4.80;92.10;;;;;;5077065;28;20423;-76
2023/11/28 01:36:07;;;;;;;0.90;0.90;;;4.80;92.00;;;;;;5093949;28;20054;-75
2023/11/28 01:38:33;;;;;;;0.75;0.75;;;4.90;92.00;;;;;;5093795;28;20135;-76
2023/11/28 01:40:59;;;;;;;0.80;0.80;;;4.90;91.90;;;;;;5094082;28;20027;-76
2023/11/28 01:43:29;;;;;;;0.85;0.85;;;4.80;91.90;;;;;;5093929;28;20036;-76
2023/11/28 01:45:55;;;;;;;0.90;0.90;;;4.80;91.80;;;;;;5093570;28;20023;-76
2023/11/28 01:48:22;;;;;;;0.90;0.90;;;4.70;91.80;;;;;;5093710;28;20376;-76
2023/11/28 01:50:49;;;;;;;1.00;1.00;;;4.60;91.80;;;;;;5111847;28;20161;-76
2023/11/28 01:53:19;;;;;;;0.90;0.90;;;4.50;91.80;;;;;;5076920;28;20027;-76
2023/11/28 01:55:45;;;;;;;0.95;0.95;;;4.40;91.80;;;;;;5111863;28;20104;-76
2023/11/28 01:58:12;;;;;;;1.10;1.10;;;4.40;91.80;;;;;;5093803;28;20429;-76
2023/11/28 02:00:37;;;;;;;1.00;1.00;;;4.40;91.80;;;;;;5111829;28;20042;-76
2023/11/28 02:03:04;;;;;;;1.10;1.10;;;4.30;91.80;;;;;;5093809;28;20024;-76
2023/11/28 02:05:31;;;;;;;1.05;1.05;;;4.30;91.90;;;;;;5112198;28;20031;-76
2023/11/28 02:07:56;;;;;;;;;;;4.30;91.90;;;;;;5112587;28;20102;-76
2023/11/28 02:10:27;;;;;;;1.00;1.00;;;4.20;91.90;;;;;;5076577;28;20349;-76
2023/11/28 02:12:52;;;;;;;0.90;0.90;;;4.30;91.90;;;;;;5077200;28;20483;-76
2023/11/28 02:15:37;;;;;;;1.10;1.10;;;4.30;91.90;;;;;;5059952;28;20059;-76
2023/11/28 02:18:03;;;;;;;1.10;1.10;;;4.30;91.90;;;;;;5093276;28;20036;-76
2023/11/28 02:20:29;;;;;;;1.10;1.10;;;4.20;91.80;;;;;;5059873;28;20046;-75
2023/11/28 02:22:55;;;;;;;1.00;1.00;;;4.20;91.70;;;;;;5111455;28;20039;-76
2023/11/28 02:25:21;;;;;;;1.10;1.10;;;4.10;91.70;;;;;;5111298;28;20043;-76
2023/11/28 02:27:47;;;;;;;1.40;1.30;;;4.10;91.70;;;;;;5111511;28;20024;-76
2023/11/28 02:30:13;;;;;;;1.30;1.20;;;4.10;91.90;;;;;;5093389;28;20046;-76
2023/11/28 02:32:39;;;;;;;1.50;1.40;;;4.00;91.70;;;;;;5093281;28;20032;-76
2023/11/28 02:35:05;;;;;;;1.50;1.40;;;3.90;91.70;;;;;;5093323;28;20122;-76
2023/11/28 02:37:30;;;;;;;1.60;1.50;;;3.90;91.70;;;;;;5059640;28;20031;-76
2023/11/28 02:39:56;;;;;;;1.50;1.40;;;3.90;91.70;;;;;;5093165;28;20039;-76
2023/11/28 02:42:22;;;;;;;1.60;1.50;;;3.80;91.70;;;;;;5093068;28;20558;-75
2023/11/28 02:44:48;;;;;;;1.58;1.48;;;3.80;91.80;;;;;;5092975;28;20387;-76
2023/11/28 02:47:13;;;;;;;1.42;1.33;;;3.80;91.80;;;;;;5093134;28;20024;-76
2023/11/28 02:49:39;;;;;;;1.58;1.48;;;3.80;91.80;;;;;;5111309;28;20031;-76
2023/11/28 02:52:05;;;;;;;1.50;1.40;;;3.70;91.80;;;;;;5076085;28;20554;-76
2023/11/28 02:54:30;;;;;;;1.58;1.48;;;3.70;91.80;;;;;;5111279;28;20023;-76
2023/11/28 02:56:56;;;;;;;1.67;1.58;;;3.70;91.80;;;;;;5092884;28;20091;-76
2023/11/28 02:59:22;;;;;;;1.40;1.30;;;3.70;91.80;;;;;;5076131;28;20031;-76
2023/11/28 03:01:53;;;;;;;1.30;1.20;;;3.70;91.80;;;;;;5093157;28;20046;-76
2023/11/28 03:04:20;;;;;;;1.60;1.50;;;3.70;91.80;;;;;;5076799;28;20080;-76
2023/11/28 03:06:46;;;;;;;1.60;1.50;;;3.70;91.80;;;;;;5111238;28;20120;-76
2023/11/28 03:09:11;;;;;;;1.50;1.40;;;3.70;91.80;;;;;;5059599;28;20062;-76
2023/11/28 03:11:37;;;;;;;1.60;1.50;;;3.80;91.90;;;;;;5077689;28;20055;-76
2023/11/28 03:14:03;;;;;;;1.50;1.40;;;3.80;91.90;;;;;;5096803;28;20027;-76
2023/11/28 03:16:28;;;;;;;1.50;1.40;;;3.80;91.80;;;;;;5115006;28;20038;-75
2023/11/28 03:18:54;;;;;;;1.40;1.30;;;3.90;91.80;;;;;;5096698;28;20035;-76
2023/11/28 03:21:20;;;;;;;1.50;1.40;;;3.90;91.80;;;;;;5114790;28;20147;-76
2023/11/28 03:23:45;;;;;;;1.65;1.55;;;3.90;91.80;;;;;;5096176;28;20024;-77
2023/11/28 03:26:11;;;;;;;1.80;1.70;;;3.80;91.80;;;;;;5096667;28;20024;-76
2023/11/28 03:28:37;;;;;;;1.65;1.55;;;3.80;91.70;;;;;;5062805;28;20063;-76
2023/11/28 03:31:03;;;;;;;1.70;1.60;;;3.80;91.80;;;;;;5096509;28;20024;-76
2023/11/28 03:33:28;;;;;;;1.80;1.70;;;3.70;91.70;;;;;;5079509;28;20453;-76
2023/11/28 03:35:54;;;;;;;1.75;1.65;;;3.70;91.70;;;;;;5079379;28;20558;-76
2023/11/28 03:38:20;;;;;;;2.40;2.20;;;3.70;91.70;;;;;;5079608;28;20047;-76
2023/11/28 03:40:46;;;;;;;1.95;1.85;;;3.60;91.70;;;;;;5096541;28;20023;-76
2023/11/28 03:43:11;;;;;;;2.20;2.00;;;3.50;91.70;;;;;;5096195;28;20421;-76
2023/11/28 03:45:37;;;;;;;2.20;2.00;;;3.50;91.80;;;;;;5096082;28;20701;-76
2023/11/28 03:48:03;;;;;;;2.30;2.10;;;3.40;91.80;;;;;;5062656;28;20044;-76
2023/11/28 03:50:28;;;;;;;2.60;2.40;;;3.40;91.80;;;;;;5079160;28;20390;-76
2023/11/28 03:52:54;;;;;;;2.63;2.42;;;3.40;91.80;;;;;;5079122;28;20028;-76
2023/11/28 03:55:20;;;;;;;2.50;2.30;;;3.40;91.80;;;;;;5114775;28;20110;-76
2023/11/28 03:57:45;;;;;;;2.40;2.20;;;3.40;91.80;;;;;;5114233;28;20118;-76
2023/11/28 04:00:11;;;;;;;2.40;2.20;;;3.40;91.80;;;;;;5096102;28;20043;-76
2023/11/28 04:02:37;;;;;;;2.72;2.53;;;3.40;91.70;;;;;;5079053;28;20047;-76
2023/11/28 04:05:06;;;;;;;2.40;2.20;;;3.30;91.70;;;;;;5078786;28;20024;-76
2023/11/28 04:07:32;;;;;;;2.30;2.10;;;3.30;91.70;;;;;;5079781;28;20032;-76
2023/11/28 04:09:57;;;;;;;2.45;2.25;;;3.20;91.60;;;;;;5095597;28;20034;-76
2023/11/28 04:12:24;;;;;;;2.50;2.30;;;3.20;91.70;;;;;;5078737;28;20058;-76
2023/11/28 04:14:49;;;;;;;2.30;2.10;;;3.20;91.70;;;;;;5078795;28;20051;-76
2023/11/28 04:17:15;;;;;;;2.45;2.25;;;3.10;91.60;;;;;;5078658;28;20487;-76
2023/11/28 04:19:41;;;;;;;2.53;2.33;;;3.10;91.70;;;;;;5114164;28;20028;-76
2023/11/28 04:22:06;;;;;;;2.55;2.35;;;3.10;91.70;;;;;;5095379;28;20040;-76
2023/11/28 04:24:32;;;;;;;2.70;2.50;;;3.10;91.70;;;;;;5078156;28;20048;-76
2023/11/28 04:26:58;;;;;;;2.60;2.40;;;3.00;91.70;;;;;;5095395;28;20086;-76
2023/11/28 04:29:23;;;;;;;2.70;2.50;;;3.00;91.60;;;;;;5095448;28;20039;-76
2023/11/28 04:31:49;;;;;;;2.75;2.55;;;3.00;91.70;;;;;;5078289;28;20444;-76
2023/11/28 04:34:15;;;;;;;2.80;2.60;;;3.00;91.70;;;;;;5095214;28;20106;-76
2023/11/28 04:36:41;;;;;;;2.65;2.45;;;3.00;91.70;;;;;;5095299;28;20412;-76
2023/11/28 04:39:07;;;;;;;2.80;2.60;;;3.00;91.70;;;;;;5078508;28;20027;-76
2023/11/28 04:41:33;;;;;;;2.80;2.60;;;3.00;91.70;;;;;;5078340;28;20055;-76
2023/11/28 04:43:59;;;;;;;2.63;2.42;;;3.00;91.70;;;;;;5113054;28;20058;-76
2023/11/28 04:46:25;;;;;;;2.83;2.63;;;3.00;91.70;;;;;;5095030;28;20482;-76
2023/11/28 04:48:50;;;;;;;2.45;2.25;;;3.10;91.70;;;;;;5077915;28;20027;-76
2023/11/28 04:51:16;;;;;;;2.50;2.30;;;3.10;91.70;;;;;;5094838;28;20038;-75
2023/11/28 04:53:42;;;;;;;2.92;2.72;;;3.10;91.70;;;;;;5077726;28;20463;-76
2023/11/28 04:56:08;;;;;;;1.92;1.83;;;3.10;91.70;;;;;;5094611;28;20364;-75
2023/11/28 04:58:34;;;;;;;;;;;3.10;91.70;;;;;;5094894;28;20027;-76
2023/11/28 05:01:03;;;;;;;1.92;1.83;;;3.10;91.60;;;;;;5094433;28;20006;-76
2023/11/28 05:03:29;;;;;;;1.83;1.73;;;3.10;91.60;;;;;;5112759;28;20478;-76
2023/11/28 05:05:54;;;;;;;2.13;1.95;;;3.10;91.60;;;;;;5094193;28;20039;-76
2023/11/28 05:08:20;;;;;;;2.20;2.00;;;3.10;91.60;;;;;;5077675;28;20027;-76
2023/11/28 05:10:46;;;;;;;1.80;1.70;;;3.10;91.60;;;;;;5060970;28;20024;-76
2023/11/28 05:13:12;;;;;;;1.70;1.60;;;3.00;91.60;;;;;;5077797;28;20024;-76
2023/11/28 05:15:37;;;;;;;1.63;1.52;;;3.00;91.60;;;;;;5077409;28;20027;-76
2023/11/28 05:18:03;;;;;;;1.75;1.65;;;3.10;91.70;;;;;;5112511;28;20573;-76
2023/11/28 05:20:29;;;;;;;1.67;1.58;;;3.10;91.70;;;;;;5077322;28;20043;-76
2023/11/28 05:22:56;;;;;;;1.80;1.70;;;3.10;91.70;;;;;;5077423;28;20067;-76
2023/11/28 05:25:21;;;;;;;1.60;1.50;;;3.10;91.70;;;;;;5093757;28;20516;-76
2023/11/28 05:27:47;;;;;;;1.60;1.50;;;3.20;91.70;;;;;;5077218;28;20058;-75
2023/11/28 05:30:13;;;;;;;1.60;1.50;;;3.20;91.70;;;;;;5112393;28;20038;-76
2023/11/28 05:32:39;;;;;;;1.60;1.50;;;3.30;91.70;;;;;;5094102;28;20024;-76
2023/11/28 05:35:05;;;;;;;1.33;1.23;;;3.40;91.70;;;;;;5111684;28;20036;-76
2023/11/28 05:37:31;;;;;;;;;;;3.40;91.70;;;;;;5077578;28;20092;-76
2023/11/28 05:39:59;;;;;;;1.40;1.30;;;3.50;91.90;;;;;;5112305;28;19907;-76
2023/11/28 05:42:26;;;;;;;1.35;1.25;;;3.50;91.60;;;;;;5112051;28;20102;-76
2023/11/28 05:44:52;;;;;;;1.25;1.17;;;3.40;91.50;;;;;;5093481;28;20080;-76
2023/11/28 05:47:18;;;;;;;1.30;1.20;;;3.40;91.60;;;;;;5093589;28;20644;-76
2023/11/28 05:49:44;;;;;;;;;;;3.40;91.60;;;;;;5077514;28;20054;-76
2023/11/28 05:52:09;;;;;;;1.30;1.20;;;3.40;91.70;;;;;;5076967;28;19915;-76
2023/11/28 05:54:35;;;;;;;1.35;1.25;;;3.40;91.60;;;;;;5112002;28;20034;-76
2023/11/28 05:57:02;;;;;;;1.30;1.20;;;3.40;91.60;;;;;;5060084;28;20032;-75
2023/11/28 05:59:28;;;;;;;1.13;1.13;;;3.40;91.60;;;;;;5111740;28;20027;-76
2023/11/28 06:02:03;;;;;;;1.40;1.30;;;3.40;91.60;;;;;;5093524;28;20042;-76
2023/11/28 06:04:29;;;;;;;1.40;1.30;;;3.40;91.60;;;;;;5094104;28;20043;-76
2023/11/28 06:06:55;;;;;;;1.30;1.20;;;3.30;91.60;;;;;;5093393;28;20023;-76
2023/11/28 06:09:24;;;;;;;1.30;1.20;;;3.30;91.60;;;;;;5111718;28;20065;-76
2023/11/28 06:11:53;;;;;;;1.42;1.33;;;3.40;91.70;;;;;;5111770;28;20375;-76
2023/11/28 06:14:21;;;;;;;1.40;1.30;;;3.40;91.70;;;;;;5093252;28;20038;-76
2023/11/28 06:16:46;;;;;;;1.48;1.38;;;3.40;91.70;;;;;;5093254;28;20596;-76
2023/11/28 06:19:12;;;;;;;1.60;1.50;;;3.40;91.60;;;;;;5093372;28;20123;-76
2023/11/28 06:21:38;;;;;;;1.30;1.20;;;3.40;91.70;;;;;;5111632;28;20367;-76
2023/11/28 06:24:05;;;;;;;1.10;1.10;;;3.40;91.70;;;;;;5111125;28;20048;-76
2023/11/28 06:26:31;;;;;;;1.35;1.25;;;3.40;91.70;;;;;;5093292;28;20390;-75
2023/11/28 06:28:56;;;;;;;1.40;1.30;;;3.50;91.70;;;;;;5076500;28;20034;-75
2023/11/28 06:31:22;;;;;;;1.65;1.55;;;3.50;91.70;;;;;;5076178;28;20043;-76
2023/11/28 06:33:48;;;;;;;1.40;1.30;;;3.50;91.70;;;;;;5093073;28;20034;-76
2023/11/28 06:36:14;;;;;;;1.10;1.10;;;3.50;91.70;;;;;;5093127;28;20069;-76
2023/11/28 06:38:41;;;;;;;1.40;1.30;;;3.50;91.70;;;;;;5092963;28;20108;-76
2023/11/28 06:41:07;;;;;;;1.30;1.20;;;3.60;91.80;;;;;;5076386;28;20225;-76
2023/11/28 06:43:33;;;;;;;;;;;3.60;91.80;;;;;;5112062;28;20222;-75
2023/11/28 06:46:00;;;;;;;0.93;0.93;;;3.60;91.80;;;;;;5112024;28;20266;-76
2023/11/28 06:48:26;;;;;;;1.70;1.60;;;3.60;91.70;;;;;;5115795;28;20020;-76
2023/11/28 06:50:53;;;;;;;1.00;1.00;;;3.60;92.00;;;;;;5097151;28;20351;-76
2023/11/28 06:53:18;;;;;;;1.17;1.13;;;3.70;91.80;;;;;;5115312;28;20020;-76
2023/11/28 06:55:44;;;;;;;1.30;1.20;;;3.70;91.80;;;;;;5115365;28;20052;-76
2023/11/28 06:58:11;;;;;;;1.27;1.17;;;3.70;91.80;;;;;;5115222;28;20059;-76
2023/11/28 07:00:37;;;;;;;1.00;1.00;;;3.80;91.80;;;;;;5115266;28;20079;-76
2023/11/28 07:03:03;;;;;;;1.30;1.20;;;3.80;91.80;;;;;;5115314;28;20478;-76
2023/11/28 07:05:29;;;;;;;1.25;1.15;;;3.80;91.80;;;;;;5115008;28;20074;-76
2023/11/28 07:07:55;;;;;;;1.40;1.30;;;3.80;91.80;;;;;;5079831;28;20059;-76
2023/11/28 07:10:21;;;;;;;1.00;1.00;;;3.90;91.80;;;;;;5096386;28;20031;-76
2023/11/28 07:12:47;;;;;;;1.10;1.10;;;3.90;91.70;;;;;;5115519;28;20049;-76
2023/11/28 07:15:13;;;;;;;1.00;1.00;;;3.90;91.70;;;;;;5062769;28;20035;-76
2023/11/28 07:17:40;;;;;;;1.08;1.08;;;3.90;91.70;;;;;;5096754;28;20031;-76
2023/11/28 07:20:06;;;;;;;1.10;1.10;;;3.80;91.70;;;;;;5079800;28;20547;-76
2023/11/28 07:22:32;;;;;;;1.10;1.10;;;3.80;91.70;;;;;;5080058;28;20122;-76
2023/11/28 07:24:58;;;;;;;1.30;1.20;;;3.80;91.70;;;;;;5095864;28;20040;-76
2023/11/28 07:27:24;;;;;;;1.13;1.13;;;3.80;91.70;;;;;;5096197;28;20440;-76
2023/11/28 07:29:50;;;;;;;1.05;1.05;;;3.70;91.80;;;;;;5079417;28;20081;-76
2023/11/28 07:32:16;;;;;;;1.10;1.10;;;3.80;91.80;;;;;;5095735;28;20023;-76
2023/11/28 07:34:42;;;;;;;;;;;3.80;91.80;;;;;;5096395;28;20092;-73
2023/11/28 07:37:08;;;;;;;1.10;1.10;;;3.90;91.90;;;;;;5114450;28;19904;-76
2023/11/28 07:39:33;;;;;;;1.00;1.00;;;3.90;91.80;;;;;;5113898;28;20031;-75
2023/11/28 07:41:59;;;;;;;1.08;1.08;;;3.90;91.80;;;;;;5114239;28;20036;-76
2023/11/28 07:44:25;;;;;;;1.00;1.00;;;4.00;91.80;;;;;;5096152;28;20031;-76
2023/11/28 07:46:51;;;;;;;1.30;1.20;;;4.00;91.80;;;;;;5095538;28;20360;-76
2023/11/28 07:49:17;;;;;;;1.23;1.13;;;4.00;91.80;;;;;;5095119;28;20513;-76
2023/11/28 07:51:44;;;;;;;1.00;1.00;;;4.00;91.80;;;;;;5113558;28;20119;-76
2023/11/28 07:54:10;;;;;;;0.93;0.93;;;4.10;91.80;;;;;;5113581;28;20032;-76
2023/11/28 07:56:35;;;;;;;1.10;1.10;;;4.10;91.80;;;;;;5095261;28;20035;-74
2023/11/28 07:59:01;;;;;;;1.10;1.10;;;4.10;91.80;;;;;;5095466;28;20027;-76
2023/11/28 08:01:27;;;;;;;0.90;0.90;;;4.10;91.90;;;;;;5095225;28;20023;-74
2023/11/28 08:03:52;;;;;;;0.90;0.90;;;4.10;91.90;;;;;;5095282;28;20062;-74
2023/11/28 08:06:19;;;;;;;1.13;1.10;;;4.20;91.90;;;;;;5078593;28;20027;-75
2023/11/28 08:08:45;;;;;;;0.90;0.90;;;4.20;91.80;;;;;;5095090;28;20038;-75
2023/11/28 08:11:12;;;;;;;1.10;1.10;;;4.20;91.80;;;;;;5112999;28;20021;-75
2023/11/28 08:13:39;;;;;;;0.90;0.90;;;4.20;91.80;;;;;;5077824;28;20032;-75
2023/11/28 08:16:05;;;;;;;0.90;0.90;;;4.20;91.80;;;;;;5080021;28;20111;-74
2023/11/28 08:18:31;;;;;;;;;;;4.20;91.80;;;;;;5095331;28;20116;-76
2023/11/28 08:20:57;;;;;;;1.00;1.00;;;4.20;91.90;;;;;;5113012;28;20378;-75
2023/11/28 08:23:22;;;;;;;1.25;1.15;;;4.20;91.80;;;;;;5113212;28;20471;-76
2023/11/28 08:25:49;;;;;;;1.00;1.00;;;4.20;92.00;;;;;;5078149;28;20047;-75
2023/11/28 08:28:15;;;;;;;1.10;1.10;;;4.20;91.80;;;;;;5078659;28;20475;-75
2023/11/28 08:30:41;;;;;;;1.00;1.00;;;4.10;91.80;;;;;;5113007;28;20082;-76
2023/11/28 08:33:07;;;;;;;1.08;1.08;;;4.10;91.80;;;;;;5094452;28;20114;-75
2023/11/28 08:35:32;;;;;;;1.00;1.00;;;4.10;91.90;;;;;;5060757;28;20028;-74
2023/11/28 08:37:58;;;;;;;0.90;0.90;;;4.10;91.90;;;;;;5094171;28;20490;-75
2023/11/28 08:40:24;;;;;;;1.00;1.00;;;4.10;91.90;;;;;;5094540;28;20031;-74
2023/11/28 08:42:50;;;;;;;0.98;0.98;;;4.20;91.90;;;;;;5094254;28;20039;-76
2023/11/28 08:45:16;;;;;;;1.00;1.00;;;4.20;91.90;;;;;;5113005;28;20032;-75
2023/11/28 08:47:42;;;;;;;0.90;0.90;;;4.20;91.90;;;;;;5094507;28;20111;-76
2023/11/28 08:50:08;;;;;;;0.80;0.80;;;4.20;91.90;;;;;;5112456;28;20093;-76
2023/11/28 08:52:33;;;;;;;0.90;0.90;;;4.30;92.00;;;;;;5077553;28;20062;-75
2023/11/28 08:55:00;;;;;;;0.90;0.90;;;4.30;91.90;;;;;;5077213;28;20486;-76
2023/11/28 08:57:33;;;;;;;1.00;1.00;;;4.40;92.00;;;;;;5112102;28;20379;-75
2023/11/28 09:00:01;;;;;;;0.90;0.90;;;4.40;92.00;;;;;;5074998;28;20400;-76
2023/11/28 09:02:26;;;;;;;0.80;0.80;;;4.50;92.00;;;;;;5073988;28;20051;-74
2023/11/28 09:04:52;;;;;;;0.90;0.90;;;4.60;92.00;;;;;;5075792;28;20324;-74
2023/11/28 09:07:18;;;;;;;0.82;0.82;;;4.70;92.00;;;;;;5077526;28;20032;-75
2023/11/28 09:09:43;;;;;;;0.70;0.70;;;4.70;91.90;;;;;;5111108;28;20048;-74
2023/11/28 09:12:09;;;;;;;0.90;0.90;;;4.70;91.90;;;;;;5111488;28;20095;-75
2023/11/28 09:14:35;;;;;;;0.90;0.90;;;4.70;91.90;;;;;;5093002;28;20026;-73
2023/11/28 09:17:01;;;;;;;0.90;0.90;;;4.70;91.90;;;;;;5093388;28;20470;-74
2023/11/28 09:19:26;;;;;;;0.80;0.80;;;4.80;91.90;;;;;;5076484;28;20108;-72
2023/11/28 09:21:52;;;;;;;0.80;0.80;;;4.80;91.90;;;;;;5092959;28;20047;-74
2023/11/28 09:24:18;;;;;;;0.80;0.80;;;4.90;92.00;;;;;;5111213;28;20044;-74
2023/11/28 09:26:43;;;;;;;0.82;0.82;;;4.90;92.00;;;;;;5093153;28;20670;-73
2023/11/28 09:29:09;;;;;;;0.80;0.80;;;5.00;92.10;;;;;;5111417;28;20467;-77
2023/11/28 09:31:36;;;;;;;0.60;0.60;;;5.10;92.10;;;;;;5093216;28;20028;-78
2023/11/28 09:34:02;;;;;;;0.60;0.60;;;5.10;92.00;;;;;;5076335;28;20038;-78
2023/11/28 09:36:30;;;;;;;0.70;0.70;;;5.20;92.00;;;;;;5112029;28;20028;-79
2023/11/28 09:38:59;;;;;;;0.70;0.70;;;5.20;91.90;;;;;;5111670;28;20524;-79
2023/11/28 09:41:26;;;;;;;0.70;0.70;;;5.20;91.90;;;;;;5111497;28;20032;-79
2023/11/28 09:43:52;;;;;;;0.63;0.63;;;5.10;91.90;;;;;;5111193;28;20019;-78
2023/11/28 09:46:22;;;;;;;;;;;5.10;91.90;;;;;;5114154;28;20027;-79
2023/11/28 09:48:51;;;;;;;0.60;0.60;;;5.20;92.00;;;;;;5114932;28;20499;-79
2023/11/28 09:51:19;;;;;;;0.60;0.60;;;5.20;91.90;;;;;;5111500;28;20349;-79
2023/11/28 09:53:46;;;;;;;0.68;0.68;;;5.20;91.90;;;;;;5093924;28;20049;-73
2023/11/28 09:56:15;;;;;;;0.60;0.60;;;5.20;92.00;;;;;;5111380;28;20024;-77
2023/11/28 09:58:41;;;;;;;0.60;0.60;;;5.30;92.10;;;;;;5111293;28;20019;-78
2023/11/28 10:01:11;;;;;;;0.60;0.60;;;5.30;92.10;;;;;;5092945;28;20103;-78
2023/11/28 10:03:36;;;;;;;0.60;0.60;;;5.40;92.10;;;;;;5092467;28;20482;-78
2023/11/28 10:06:03;;;;;;;0.80;0.80;;;5.50;92.10;;;;;;5111218;28;20019;-77
2023/11/28 10:08:31;;;;;;;0.60;0.60;;;5.50;92.00;;;;;;5112174;28;20024;-77
2023/11/28 10:10:57;;;;;;;0.60;0.60;;;5.50;92.00;;;;;;5109346;28;20023;-78
2023/11/28 10:13:23;;;;;;;0.57;0.57;;;5.60;92.00;;;;;;5077720;28;20475;-78
2023/11/28 10:15:51;;;;;;;0.63;0.63;;;5.60;92.00;;;;;;5094887;28;20042;-78
2023/11/28 10:18:20;;;;;;;0.70;0.70;;;5.60;92.00;;;;;;5106892;28;20359;-75
2023/11/28 10:20:47;;;;;;;0.60;0.60;;;5.70;92.10;;;;;;5096396;28;20506;-78
2023/11/28 10:23:16;;;;;;;0.50;0.50;;;5.70;92.10;;;;;;5104783;28;20024;-77
2023/11/28 10:25:42;;;;;;;0.52;0.52;;;5.90;92.30;;;;;;5094745;28;20070;-78
2023/11/28 10:28:12;;;;;;;0.50;0.50;;;6.00;92.40;;;;;;5091643;28;20028;-79
2023/11/28 10:30:40;;;;;;;0.40;0.40;;;6.30;92.50;;;;;;5092162;28;20056;-78
2023/11/28 10:33:10;;;;;;;0.38;0.38;;;6.50;92.40;;;;;;5111940;28;20027;-81
2023/11/28 10:35:39;;;;;;;0.40;0.40;;;6.60;92.30;;;;;;5112616;28;20023;-77
2023/11/28 10:38:05;;;;;;;0.30;0.30;;;6.60;92.20;;;;;;5088279;28;20074;-78
2023/11/28 10:40:33;;;;;;;0.40;0.40;;;6.70;92.30;;;;;;5080490;28;20016;-78
2023/11/28 10:42:59;;;;;;;0.40;0.40;;;6.70;92.30;;;;;;5097111;28;20032;-78
2023/11/28 10:45:25;;;;;;;;;;;6.80;92.30;;;;;;5091422;28;20032;-78
2023/11/28 10:47:52;;;;;;;0.30;0.30;;;6.90;92.40;;;;;;5110188;28;20308;-78
2023/11/28 10:50:17;;;;;;;;;;;7.00;92.50;;;;;;5109162;28;20023;-78
2023/11/28 10:52:46;;;;;;;0.30;0.30;;;7.10;92.40;;;;;;5112730;28;19915;-78
2023/11/28 10:55:18;;;;;;;0.35;0.35;;;7.10;92.30;;;;;;5112684;28;20482;-78
2023/11/28 10:58:04;;;;;;;0.40;0.40;;;7.20;92.20;;;;;;5112770;28;20030;-78
2023/11/28 11:00:37;;;;;;;0.30;0.30;;;7.20;92.20;;;;;;5104907;28;20420;-80
2023/11/28 11:03:03;;;;;;;0.22;0.22;;;7.20;92.40;;;;;;5112431;28;20083;-73
2023/11/28 11:05:31;;;;;;;0.30;0.30;;;7.50;92.80;;;;;;5099532;28;20025;-84
2023/11/28 11:07:57;;;;;;;0.25;0.25;;;7.90;92.90;;;;;;5092949;28;20031;-77
2023/11/28 11:10:27;;;;;;;0.30;0.30;;;8.00;92.60;;;;;;5093014;28;20027;-81
2023/11/28 11:13:22;;;;;;;0.20;0.20;;;8.10;92.40;;;;;;5097750;28;20031;-80
2023/11/28 11:15:53;;;;;;;0.35;0.35;;;8.10;92.40;;;;;;5096074;28;20031;-81
2023/11/28 11:18:39;;;;;;;0.20;0.20;;;8.10;92.50;;;;;;5093223;28;20024;-79
2023/11/28 11:21:22;;;;;;;0.20;0.20;;;8.20;92.50;;;;;;5092844;28;20028;-75
2023/11/28 11:23:53;;;;;;;0.20;0.20;;;8.20;92.50;;;;;;5074127;28;20028;-77
2023/11/28 11:26:29;;;;;;;0.20;0.20;;;8.30;92.60;;;;;;5099499;28;20027;-79
2023/11/28 11:28:58;;;;;;;0.20;0.20;;;8.30;92.60;;;;;;5095296;28;20027;-79
2023/11/28 11:31:23;;;;;;;0.20;0.20;;;8.30;92.50;;;;;;5113560;28;20049;-80
2023/11/28 11:33:49;;;;;;;0.10;0.10;;;8.40;92.70;;;;;;5098727;28;20024;-79
2023/11/28 11:36:17;;;;;;;0.22;0.22;;;8.50;92.70;;;;;;5081677;28;20495;-81
2023/11/28 11:38:46;;;;;;;0.30;0.30;;;8.60;92.80;;;;;;5115875;28;20081;-82
2023/11/28 11:41:12;;;;;;;0.20;0.20;;;8.90;93.20;;;;;;5098580;28;20057;-73
2023/11/28 11:43:41;;;;;;;0.20;0.20;;;9.30;93.20;;;;;;5116283;28;20042;-80
2023/11/28 11:46:17;;;;;;;0.20;0.20;;;9.60;93.20;;;;;;5116526;28;20027;-81
2023/11/28 11:48:42;;;;;;;0.20;0.20;;;9.90;93.30;;;;;;5116183;28;20019;-80
2023/11/28 11:51:09;;;;;;;0.20;0.20;;;10.40;93.50;;;;;;5116602;28;20015;-82
2023/11/28 11:53:41;;;;;;;0.10;0.10;;;10.80;93.90;;;;;;5116212;28;20043;-84
2023/11/28 11:56:08;;;;;;;0.00;0.00;;;11.50;94.10;;;;;;5116208;28;20020;-78
2023/11/28 11:58:34;;;;;;;0.00;0.00;;;12.20;94.10;;;;;;5116439;28;20073;-78
2023/11/28 12:01:04;;;;;;;0.00;0.00;;;12.80;93.90;;;;;;5116456;28;20027;-83
2023/11/28 12:03:30;;;;;;;0.00;0.00;;;12.90;93.40;;;;;;5116684;28;20475;-83
2023/11/28 12:05:57;;;;;;;;;;;12.80;93.20;;;;;;5097801;28;20032;-82
2023/11/28 12:08:24;;;;;;;0.00;0.00;;;12.80;93.50;;;;;;5116069;28;19903;-84
2023/11/28 12:11:03;;;;;;;0.00;0.00;;;13.00;93.70;;;;;;5115994;28;20375;-83
2023/11/28 12:13:29;;;;;;;0.00;0.00;;;13.20;93.80;;;;;;5098324;28;20020;-83
2023/11/28 12:16:01;;;;;;;0.00;0.00;;;13.30;93.80;;;;;;5080189;28;20073;-80
2023/11/28 12:18:27;;;;;;;0.00;0.00;;;13.50;93.90;;;;;;5115724;28;20027;-80
2023/11/28 12:20:53;;;;;;;0.00;0.00;;;13.70;94.10;;;;;;5115757;28;20031;-80
2023/11/28 12:23:19;;;;;;;0.00;0.00;;;13.90;94.10;;;;;;5080153;28;20058;-81
2023/11/28 12:25:44;;;;;;;0.05;0.00;;;13.90;93.60;;;;;;5096513;28;20051;-79
2023/11/28 12:28:10;;;;;;;0.00;0.00;;;13.40;92.90;;;;;;5115678;28;20032;-77
2023/11/28 12:30:36;;;;;;;0.00;0.00;;;12.80;92.60;;;;;;5097455;28;20078;-79
2023/11/28 12:33:02;;;;;;;0.20;0.10;;;12.10;92.30;;;;;;5115478;28;20031;-78
2023/11/28 12:35:28;;;;;;;0.00;0.00;;;11.50;92.30;;;;;;5097360;28;20103;-79
2023/11/28 12:37:57;;;;;;;0.00;0.00;;;10.90;92.50;;;;;;5097929;28;20032;-80
2023/11/28 12:40:23;;;;;;;0.00;0.00;;;10.50;92.70;;;;;;5115411;28;20434;-79
2023/11/28 12:42:49;;;;;;;0.00;0.00;;;10.20;92.70;;;;;;5096923;28;20059;-79
2023/11/28 12:45:18;;;;;;;;;;;9.90;92.80;;;;;;5115410;28;20085;-79
2023/11/28 12:47:43;;;;;;;0.00;0.00;;;9.80;93.00;;;;;;5114705;28;19903;-78
2023/11/28 12:50:10;;;;;;;0.00;0.00;;;9.70;93.00;;;;;;5114910;28;21559;-79
2023/11/28 12:52:39;;;;;;;;;;;9.60;92.80;;;;;;5115612;28;20455;-77
2023/11/28 12:55:07;;;;;;;0.00;0.00;;;9.50;92.80;;;;;;5114827;28;19907;-78
2023/11/28 12:57:33;;;;;;;0.00;0.00;;;9.40;92.70;;;;;;5115136;28;20024;-80